Time;durP1;ratioP1;P1;durP2;ratioP2;P2;SDS_P1;SDS_P2;PMS_P1;PMS_P2;Temp;Humidity;BMP_temperature;BMP_pressure;BME280_temperature;BME280_humidity;BME280_pressure;Samples;Min_cycle;Max_cycle;Signal;HPM_P1;HPM_P2
2021/08/23 00:00:47;;;;;;;21.87;14.90;;;;;;;;;;2086483;28;20051;-45
2021/08/23 00:01:48;;;;;;;25.05;15.68;;;;;;;;;;2089026;28;20131;-45
2021/08/23 00:02:49;;;;;;;26.23;15.30;;;;;;;;;;2088384;28;20052;-45
2021/08/23 00:03:50;;;;;;;26.67;17.00;;;;;;;;;;2087183;28;20554;-46
2021/08/23 00:04:51;;;;;;;22.73;15.47;;;;;;;;;;2089084;28;20068;-46
2021/08/23 00:05:53;;;;;;;26.05;16.77;;;;;;;;;;2087238;28;20094;-44
2021/08/23 00:06:54;;;;;;;23.88;16.20;;;;;;;;;;2086480;28;20215;-42
2021/08/23 00:07:55;;;;;;;26.70;17.13;;;;;;;;;;2089048;28;20482;-45
2021/08/23 00:08:57;;;;;;;21.33;15.18;;;;;;;;;;2086873;28;20044;-45
2021/08/23 00:09:58;;;;;;;27.88;16.88;;;;;;;;;;2087970;28;20072;-48
2021/08/23 00:10:59;;;;;;;26.40;17.50;;;;;;;;;;2088949;28;20045;-45
2021/08/23 00:12:00;;;;;;;23.95;15.35;;;;;;;;;;2085993;28;20505;-46
2021/08/23 00:13:01;;;;;;;21.75;15.13;;;;;;;;;;2087607;28;20048;-46
2021/08/23 00:14:02;;;;;;;23.13;15.48;;;;;;;;;;2089045;28;20056;-46
2021/08/23 00:15:04;;;;;;;21.70;15.33;;;;;;;;;;2086744;28;20539;-47
2021/08/23 00:16:05;;;;;;;23.90;15.45;;;;;;;;;;2080837;28;20175;-46
2021/08/23 00:17:06;;;;;;;25.23;15.63;;;;;;;;;;2080568;28;20483;-46
2021/08/23 00:18:07;;;;;;;23.85;15.10;;;;;;;;;;2084146;28;20549;-46
2021/08/23 00:19:08;;;;;;;21.70;14.13;;;;;;;;;;2088042;28;20033;-46
2021/08/23 00:20:10;;;;;;;21.85;15.30;;;;;;;;;;2089197;28;20124;-44
2021/08/23 00:21:14;;;;;;;22.33;14.63;;;;;;;;;;2085352;28;20050;-44
2021/08/23 00:22:22;;;;;;;26.88;15.60;;;;;;;;;;2088817;28;20071;-44
2021/08/23 00:23:25;;;;;;;23.88;16.05;;;;;;;;;;2088356;28;20581;-44
2021/08/23 00:24:26;;;;;;;27.60;15.32;;;;;;;;;;2085936;28;20175;-46
2021/08/23 00:25:27;;;;;;;22.67;15.77;;;;;;;;;;2088775;28;20128;-44
2021/08/23 00:26:28;;;;;;;23.20;15.23;;;;;;;;;;2088161;28;20049;-44
2021/08/23 00:27:29;;;;;;;23.45;15.02;;;;;;;;;;2086364;28;20106;-44
2021/08/23 00:28:31;;;;;;;21.98;14.68;;;;;;;;;;2088831;28;20052;-45
2021/08/23 00:29:31;;;;;;;27.92;15.32;;;;;;;;;;2087427;28;20084;-44
2021/08/23 00:30:33;;;;;;;25.17;16.07;;;;;;;;;;2085871;28;20049;-44
2021/08/23 00:31:33;;;;;;;22.55;15.43;;;;;;;;;;2088905;28;20136;-44
2021/08/23 00:32:35;;;;;;;22.77;16.45;;;;;;;;;;2086809;28;20052;-44
2021/08/23 00:33:36;;;;;;;23.38;16.13;;;;;;;;;;2087292;28;20481;-44
2021/08/23 00:34:37;;;;;;;23.57;15.90;;;;;;;;;;2088637;28;20139;-44
2021/08/23 00:35:38;;;;;;;27.38;16.27;;;;;;;;;;2086742;28;20048;-44
2021/08/23 00:36:40;;;;;;;22.53;14.93;;;;;;;;;;2087586;28;20053;-44
2021/08/23 00:37:40;;;;;;;;;;;;;;;;;;2089243;28;20132;-44
2021/08/23 00:38:41;;;;;;;21.15;14.52;;;;;;;;;;2086751;28;20271;-44
2021/08/23 00:39:42;;;;;;;24.98;15.25;;;;;;;;;;2087538;28;20123;-44
2021/08/23 00:40:44;;;;;;;23.92;14.65;;;;;;;;;;2088958;28;20049;-44
2021/08/23 00:41:45;;;;;;;21.90;14.55;;;;;;;;;;2085561;28;20049;-44
2021/08/23 00:42:46;;;;;;;23.67;14.75;;;;;;;;;;2088527;28;20145;-45
2021/08/23 00:43:47;;;;;;;24.45;14.45;;;;;;;;;;2088747;28;20053;-44
2021/08/23 00:44:48;;;;;;;24.33;15.30;;;;;;;;;;2083026;28;20057;-44
2021/08/23 00:45:49;;;;;;;21.77;15.40;;;;;;;;;;2088655;28;20045;-44
2021/08/23 00:46:50;;;;;;;22.33;15.45;;;;;;;;;;2088656;28;20418;-44
2021/08/23 00:47:51;;;;;;;21.77;14.88;;;;;;;;;;2085664;28;20049;-44
2021/08/23 00:48:53;;;;;;;21.40;14.23;;;;;;;;;;2080451;28;20045;-45
2021/08/23 00:49:54;;;;;;;20.33;14.73;;;;;;;;;;2080353;28;20152;-44
2021/08/23 00:50:55;;;;;;;21.80;14.90;;;;;;;;;;2084240;28;20176;-44
2021/08/23 00:51:57;;;;;;;21.10;14.57;;;;;;;;;;2088755;28;20037;-45
2021/08/23 00:52:58;;;;;;;;;;;;;;;;;;2087405;28;20084;-45
2021/08/23 00:53:59;;;;;;;22.80;14.15;;;;;;;;;;2085473;28;19920;-44
2021/08/23 00:55:00;;;;;;;17.65;12.30;;;;;;;;;;2088270;28;20071;-45
2021/08/23 00:56:01;;;;;;;21.40;14.48;;;;;;;;;;2086900;28;20148;-45
2021/08/23 00:57:02;;;;;;;24.55;13.80;;;;;;;;;;2084895;28;20128;-44
2021/08/23 00:58:03;;;;;;;20.23;13.35;;;;;;;;;;2088725;28;20047;-44
2021/08/23 00:59:08;;;;;;;21.35;14.38;;;;;;;;;;2088214;28;20140;-43
2021/08/23 01:00:10;;;;;;;18.70;13.68;;;;;;;;;;2086498;28;20135;-44
2021/08/23 01:01:12;;;;;;;19.15;13.05;;;;;;;;;;2090067;28;20107;-44
2021/08/23 01:02:15;;;;;;;21.05;13.20;;;;;;;;;;2088136;28;20106;-44
2021/08/23 01:03:21;;;;;;;22.15;14.18;;;;;;;;;;2088693;28;20048;-45
2021/08/23 01:04:26;;;;;;;20.50;13.27;;;;;;;;;;2089751;28;20052;-44
2021/08/23 01:05:29;;;;;;;17.55;13.50;;;;;;;;;;2086710;28;20133;-44
2021/08/23 01:06:30;;;;;;;20.90;13.18;;;;;;;;;;2089763;28;20072;-45
2021/08/23 01:07:34;;;;;;;20.67;13.20;;;;;;;;;;2090119;28;20056;-44
2021/08/23 01:08:37;;;;;;;19.27;12.60;;;;;;;;;;2086055;28;20052;-44
2021/08/23 01:09:39;;;;;;;18.88;12.52;;;;;;;;;;2089323;28;20411;-44
2021/08/23 01:10:42;;;;;;;19.70;13.27;;;;;;;;;;2090007;28;20077;-44
2021/08/23 01:11:47;;;;;;;21.08;13.57;;;;;;;;;;2086570;28;20052;-45
2021/08/23 01:12:48;;;;;;;18.67;12.98;;;;;;;;;;2089569;28;20123;-44
2021/08/23 01:13:50;;;;;;;20.70;13.70;;;;;;;;;;2089419;28;20410;-45
2021/08/23 01:14:51;;;;;;;20.38;13.25;;;;;;;;;;2086888;28;20128;-44
2021/08/23 01:15:52;;;;;;;18.33;13.10;;;;;;;;;;2090157;28;20164;-45
2021/08/23 01:16:53;;;;;;;20.85;12.82;;;;;;;;;;2089030;28;20046;-45
2021/08/23 01:17:55;;;;;;;19.90;12.90;;;;;;;;;;2087180;28;20048;-44
2021/08/23 01:18:56;;;;;;;;;;;;;;;;;;2090344;28;20482;-44
2021/08/23 01:19:59;;;;;;;17.38;12.18;;;;;;;;;;2088635;28;19959;-44
2021/08/23 01:21:01;;;;;;;20.27;12.68;;;;;;;;;;2087488;28;20041;-45
2021/08/23 01:22:02;;;;;;;17.83;13.63;;;;;;;;;;2089771;28;20041;-44
2021/08/23 01:23:03;;;;;;;;;;;;;;;;;;2088363;28;20051;-44
2021/08/23 01:24:08;;;;;;;17.48;12.38;;;;;;;;;;2088469;28;19924;-45
2021/08/23 01:25:11;;;;;;;19.02;12.38;;;;;;;;;;2089663;28;20490;-44
2021/08/23 01:26:14;;;;;;;19.83;12.40;;;;;;;;;;2085983;28;20050;-44
2021/08/23 01:27:15;;;;;;;19.00;12.52;;;;;;;;;;2088843;28;20589;-44
2021/08/23 01:28:20;;;;;;;19.42;13.45;;;;;;;;;;2089671;28;20569;-44
2021/08/23 01:29:25;;;;;;;17.20;12.80;;;;;;;;;;2086319;28;20610;-45
2021/08/23 01:30:27;;;;;;;19.80;12.75;;;;;;;;;;2089059;28;20148;-44
2021/08/23 01:31:32;;;;;;;20.70;12.75;;;;;;;;;;2089447;28;20488;-44
2021/08/23 01:32:34;;;;;;;21.67;13.45;;;;;;;;;;2086261;28;20045;-45
2021/08/23 01:33:35;;;;;;;19.45;12.90;;;;;;;;;;2089488;28;20537;-44
2021/08/23 01:34:37;;;;;;;20.25;13.07;;;;;;;;;;2088308;28;20110;-44
2021/08/23 01:35:38;;;;;;;18.95;13.45;;;;;;;;;;2085776;28;20132;-45
2021/08/23 01:36:39;;;;;;;19.83;13.35;;;;;;;;;;2089731;28;20140;-44
2021/08/23 01:37:40;;;;;;;19.00;12.05;;;;;;;;;;2088745;28;20131;-45
2021/08/23 01:38:41;;;;;;;21.30;13.95;;;;;;;;;;2085980;28;20059;-44
2021/08/23 01:39:43;;;;;;;20.10;13.70;;;;;;;;;;2088889;28;20492;-45
2021/08/23 01:40:44;;;;;;;;;;;;;;;;;;2088124;28;20111;-45
2021/08/23 01:41:45;;;;;;;22.38;13.52;;;;;;;;;;2087721;28;19924;-45
2021/08/23 01:42:46;;;;;;;21.33;13.20;;;;;;;;;;2089417;28;20103;-44
2021/08/23 01:43:47;;;;;;;21.15;13.32;;;;;;;;;;2087506;28;20103;-44
2021/08/23 01:44:48;;;;;;;21.17;13.20;;;;;;;;;;2086150;28;20217;-44
2021/08/23 01:45:49;;;;;;;20.07;13.00;;;;;;;;;;2089418;28;20532;-44
2021/08/23 01:46:50;;;;;;;17.23;12.45;;;;;;;;;;2087259;28;20132;-44
2021/08/23 01:47:53;;;;;;;18.52;13.23;;;;;;;;;;2088484;28;20049;-44
2021/08/23 01:48:55;;;;;;;19.42;13.02;;;;;;;;;;2089250;28;20056;-45
2021/08/23 01:49:56;;;;;;;18.73;13.18;;;;;;;;;;2085427;28;20374;-44
2021/08/23 01:50:57;;;;;;;17.55;12.23;;;;;;;;;;2089212;28;20052;-44
2021/08/23 01:51:59;;;;;;;19.35;13.90;;;;;;;;;;2089597;28;20068;-44
2021/08/23 01:52:59;;;;;;;18.92;14.13;;;;;;;;;;2084831;28;20060;-45
2021/08/23 01:54:01;;;;;;;19.23;13.30;;;;;;;;;;2089090;28;20048;-44
2021/08/23 01:55:02;;;;;;;19.60;13.23;;;;;;;;;;2088825;28;20128;-44
2021/08/23 01:56:04;;;;;;;18.02;13.00;;;;;;;;;;2084961;28;20063;-44
2021/08/23 01:57:04;;;;;;;19.17;13.32;;;;;;;;;;2089506;28;20413;-45
2021/08/23 01:58:06;;;;;;;19.98;13.43;;;;;;;;;;2089652;28;20049;-45
2021/08/23 01:59:07;;;;;;;18.77;12.90;;;;;;;;;;2086167;28;20128;-45
2021/08/23 02:00:09;;;;;;;18.08;12.13;;;;;;;;;;2089609;28;20048;-44
2021/08/23 02:01:09;;;;;;;;;;;;;;;;;;2090545;28;20049;-45
2021/08/23 02:02:11;;;;;;;16.35;12.05;;;;;;;;;;2086342;28;20251;-44
2021/08/23 02:03:12;;;;;;;22.23;12.90;;;;;;;;;;2089624;28;20573;-44
2021/08/23 02:04:13;;;;;;;18.30;12.32;;;;;;;;;;2089223;28;20057;-44
2021/08/23 02:05:14;;;;;;;20.30;13.20;;;;;;;;;;2085616;28;20118;-45
2021/08/23 02:06:16;;;;;;;20.70;12.80;;;;;;;;;;2089782;28;20106;-45
2021/08/23 02:07:16;;;;;;;20.23;13.07;;;;;;;;;;2089143;28;20047;-45
2021/08/23 02:08:18;;;;;;;17.17;12.00;;;;;;;;;;2086709;28;20049;-44
2021/08/23 02:09:19;;;;;;;20.27;12.88;;;;;;;;;;2089541;28;20055;-46
2021/08/23 02:10:20;;;;;;;21.92;13.23;;;;;;;;;;2088354;28;20414;-44
2021/08/23 02:11:24;;;;;;;18.90;12.85;;;;;;;;;;2086758;28;20512;-45
2021/08/23 02:12:25;;;;;;;19.88;13.48;;;;;;;;;;2088966;28;20613;-44
2021/08/23 02:13:26;;;;;;;18.10;12.50;;;;;;;;;;2087559;28;20573;-46
2021/08/23 02:14:27;;;;;;;19.97;13.50;;;;;;;;;;2088231;28;20049;-45
2021/08/23 02:15:27;;;;;;;20.92;13.95;;;;;;;;;;2089471;28;20178;-47
2021/08/23 02:16:29;;;;;;;17.67;12.80;;;;;;;;;;2087548;28;20398;-46
2021/08/23 02:17:30;;;;;;;17.80;12.52;;;;;;;;;;2088113;28;20041;-44
2021/08/23 02:18:32;;;;;;;21.63;13.40;;;;;;;;;;2089624;28;20105;-45
2021/08/23 02:19:32;;;;;;;;;;;;;;;;;;2087896;28;20560;-45
2021/08/23 02:20:34;;;;;;;22.30;13.35;;;;;;;;;;2088118;28;20050;-44
2021/08/23 02:21:45;;;;;;;20.35;13.43;;;;;;;;;;2089379;28;20060;-44
2021/08/23 02:22:46;;;;;;;18.02;12.85;;;;;;;;;;2086364;28;20404;-44
2021/08/23 02:23:47;;;;;;;21.15;12.95;;;;;;;;;;2089256;28;20565;-46
2021/08/23 02:24:49;;;;;;;17.67;13.33;;;;;;;;;;2089586;28;20076;-44
2021/08/23 02:25:50;;;;;;;21.65;14.18;;;;;;;;;;2086136;28;20787;-44
2021/08/23 02:26:51;;;;;;;20.52;13.73;;;;;;;;;;2089246;28;20417;-44
2021/08/23 02:27:52;;;;;;;20.00;13.27;;;;;;;;;;2089302;28;20127;-44
2021/08/23 02:28:54;;;;;;;19.15;13.40;;;;;;;;;;2086117;28;20505;-44
2021/08/23 02:29:55;;;;;;;18.58;13.23;;;;;;;;;;2089482;28;20513;-44
2021/08/23 02:30:56;;;;;;;19.43;13.77;;;;;;;;;;2089474;28;20049;-45
2021/08/23 02:31:57;;;;;;;18.88;12.70;;;;;;;;;;2086506;28;20060;-44
2021/08/23 02:32:58;;;;;;;19.43;13.03;;;;;;;;;;2089246;28;20114;-43
2021/08/23 02:34:00;;;;;;;18.42;13.13;;;;;;;;;;2089048;28;20051;-45
2021/08/23 02:35:01;;;;;;;20.83;12.82;;;;;;;;;;2085677;28;20045;-45
2021/08/23 02:36:02;;;;;;;20.52;14.20;;;;;;;;;;2089549;28;20182;-44
2021/08/23 02:37:03;;;;;;;19.38;12.80;;;;;;;;;;2088391;28;20131;-44
2021/08/23 02:38:06;;;;;;;19.88;13.95;;;;;;;;;;2087281;28;20175;-45
2021/08/23 02:39:08;;;;;;;18.92;13.02;;;;;;;;;;2089169;28;20044;-44
2021/08/23 02:40:09;;;;;;;21.08;14.07;;;;;;;;;;2087625;28;20071;-45
2021/08/23 02:41:10;;;;;;;19.27;12.90;;;;;;;;;;2087022;28;20627;-45
2021/08/23 02:42:11;;;;;;;19.02;13.00;;;;;;;;;;2089432;28;20078;-45
2021/08/23 02:43:12;;;;;;;20.25;13.52;;;;;;;;;;2085921;28;20140;-45
2021/08/23 02:44:13;;;;;;;19.88;13.10;;;;;;;;;;2088276;28;20060;-45
2021/08/23 02:45:14;;;;;;;19.57;13.97;;;;;;;;;;2089110;28;20056;-45
2021/08/23 02:46:15;;;;;;;18.85;13.65;;;;;;;;;;2086300;28;20053;-45
2021/08/23 02:47:16;;;;;;;16.80;12.70;;;;;;;;;;2087897;28;20418;-45
2021/08/23 02:48:18;;;;;;;17.42;12.57;;;;;;;;;;2089517;28;20361;-45
2021/08/23 02:49:19;;;;;;;20.45;14.13;;;;;;;;;;2087070;28;20525;-45
2021/08/23 02:50:20;;;;;;;20.02;13.18;;;;;;;;;;2081462;28;20137;-46
2021/08/23 02:51:21;;;;;;;18.67;13.55;;;;;;;;;;2080976;28;20132;-45
2021/08/23 02:52:22;;;;;;;24.17;14.82;;;;;;;;;;2081479;28;20124;-46
2021/08/23 02:53:23;;;;;;;21.33;13.67;;;;;;;;;;2081193;28;20351;-46
2021/08/23 02:54:25;;;;;;;20.88;13.48;;;;;;;;;;2080998;28;20371;-45
2021/08/23 02:55:26;;;;;;;18.00;13.35;;;;;;;;;;2086398;28;20582;-46
2021/08/23 02:56:27;;;;;;;21.08;14.80;;;;;;;;;;2089284;28;20128;-45
2021/08/23 02:57:28;;;;;;;21.05;14.10;;;;;;;;;;2088707;28;20482;-46
2021/08/23 02:58:29;;;;;;;19.35;12.93;;;;;;;;;;2086012;28;20514;-45
2021/08/23 02:59:30;;;;;;;21.37;13.80;;;;;;;;;;2089365;28;20045;-46
2021/08/23 03:00:31;;;;;;;18.92;12.90;;;;;;;;;;2088111;28;20575;-46
2021/08/23 03:01:32;;;;;;;21.23;13.18;;;;;;;;;;2083880;28;20053;-46
2021/08/23 03:02:34;;;;;;;18.10;13.40;;;;;;;;;;2080982;28;20411;-45
2021/08/23 03:03:35;;;;;;;18.30;12.85;;;;;;;;;;2087129;28;20053;-46
2021/08/23 03:04:37;;;;;;;18.48;13.68;;;;;;;;;;2087634;28;20055;-46
2021/08/23 03:05:38;;;;;;;20.35;13.95;;;;;;;;;;2088684;28;20621;-47
2021/08/23 03:06:39;;;;;;;19.05;13.02;;;;;;;;;;2087419;28;20473;-45
2021/08/23 03:07:40;;;;;;;18.47;12.77;;;;;;;;;;2086751;28;20048;-45
2021/08/23 03:08:41;;;;;;;20.35;13.57;;;;;;;;;;2089348;28;20145;-45
2021/08/23 03:09:42;;;;;;;19.50;14.17;;;;;;;;;;2088312;28;20061;-46
2021/08/23 03:10:43;;;;;;;21.27;14.02;;;;;;;;;;2088316;28;20067;-46
2021/08/23 03:11:44;;;;;;;19.00;14.07;;;;;;;;;;2089130;28;20068;-46
2021/08/23 03:12:45;;;;;;;21.60;13.77;;;;;;;;;;2085812;28;20072;-45
2021/08/23 03:13:46;;;;;;;19.70;12.90;;;;;;;;;;2089189;28;20048;-45
2021/08/23 03:14:47;;;;;;;21.20;13.85;;;;;;;;;;2089267;28;20523;-46
2021/08/23 03:15:49;;;;;;;20.30;14.10;;;;;;;;;;2086065;28;20048;-48
2021/08/23 03:16:50;;;;;;;21.85;14.13;;;;;;;;;;2089015;28;20037;-45
2021/08/23 03:17:51;;;;;;;22.27;14.43;;;;;;;;;;2089244;28;20095;-45
2021/08/23 03:18:52;;;;;;;24.27;13.82;;;;;;;;;;2084424;28;20063;-46
2021/08/23 03:19:54;;;;;;;23.70;14.75;;;;;;;;;;2089039;28;20580;-45
2021/08/23 03:20:55;;;;;;;20.95;14.45;;;;;;;;;;2089299;28;20044;-45
2021/08/23 03:21:56;;;;;;;22.70;14.40;;;;;;;;;;2085832;28;20099;-46
2021/08/23 03:22:57;;;;;;;21.55;14.35;;;;;;;;;;2088798;28;20049;-46
2021/08/23 03:23:58;;;;;;;23.47;14.77;;;;;;;;;;2089240;28;20044;-46
2021/08/23 03:24:58;;;;;;;22.23;15.27;;;;;;;;;;2086010;28;20041;-46
2021/08/23 03:26:00;;;;;;;24.73;15.57;;;;;;;;;;2088849;28;20383;-46
2021/08/23 03:27:01;;;;;;;21.77;15.25;;;;;;;;;;2088734;28;20119;-46
2021/08/23 03:28:02;;;;;;;19.80;14.20;;;;;;;;;;2085045;28;20136;-46
2021/08/23 03:29:03;;;;;;;24.67;16.35;;;;;;;;;;2089234;28;20356;-46
2021/08/23 03:30:05;;;;;;;23.02;14.98;;;;;;;;;;2088798;28;20049;-47
2021/08/23 03:31:06;;;;;;;;;;;;;;;;;;2086585;28;20080;-46
2021/08/23 03:32:08;;;;;;;21.88;14.40;;;;;;;;;;2089216;28;19921;-45
2021/08/23 03:33:10;;;;;;;18.63;13.73;;;;;;;;;;2088176;28;20290;-46
2021/08/23 03:34:12;;;;;;;20.42;15.23;;;;;;;;;;2086955;28;20071;-46
2021/08/23 03:35:14;;;;;;;20.15;14.32;;;;;;;;;;2089130;28;20608;-46
2021/08/23 03:36:15;;;;;;;21.10;14.70;;;;;;;;;;2087336;28;20051;-45
2021/08/23 03:37:16;;;;;;;24.30;15.38;;;;;;;;;;2087482;28;20553;-46
2021/08/23 03:38:17;;;;;;;21.07;14.47;;;;;;;;;;2089113;28;20045;-46
2021/08/23 03:39:18;;;;;;;21.27;14.35;;;;;;;;;;2086976;28;20072;-47
2021/08/23 03:40:19;;;;;;;21.27;14.93;;;;;;;;;;2087780;28;20053;-46
2021/08/23 03:41:20;;;;;;;19.20;13.38;;;;;;;;;;2088650;28;20171;-46
2021/08/23 03:42:21;;;;;;;20.90;15.30;;;;;;;;;;2086726;28;20045;-48
2021/08/23 03:43:22;;;;;;;26.52;15.77;;;;;;;;;;2087792;28;20381;-46
2021/08/23 03:44:23;;;;;;;23.43;16.47;;;;;;;;;;2089054;28;20049;-48
2021/08/23 03:45:24;;;;;;;26.67;16.65;;;;;;;;;;2085950;28;20184;-47
2021/08/23 03:46:27;;;;;;;24.58;15.43;;;;;;;;;;2088754;28;20096;-46
2021/08/23 03:47:28;;;;;;;26.25;16.40;;;;;;;;;;2088975;28;20413;-49
2021/08/23 03:48:30;;;;;;;21.17;15.90;;;;;;;;;;2086336;28;20075;-47
2021/08/23 03:49:31;;;;;;;23.33;16.38;;;;;;;;;;2088012;28;20435;-46
2021/08/23 03:50:33;;;;;;;24.20;16.05;;;;;;;;;;2088968;28;20561;-46
2021/08/23 03:51:33;;;;;;;;;;;;;;;;;;2086209;28;20578;-45
2021/08/23 03:52:34;;;;;;;25.15;16.98;;;;;;;;;;2087412;28;19928;-46
2021/08/23 03:53:35;;;;;;;26.58;17.00;;;;;;;;;;2089175;28;20063;-48
2021/08/23 03:54:36;;;;;;;28.23;17.30;;;;;;;;;;2085757;28;20401;-46
2021/08/23 03:55:37;;;;;;;28.42;17.27;;;;;;;;;;2088982;28;20178;-45
2021/08/23 03:56:39;;;;;;;27.00;17.20;;;;;;;;;;2088666;28;20114;-46
2021/08/23 03:57:40;;;;;;;;;;;;;;;;;;2084858;28;20045;-47
2021/08/23 03:58:41;;;;;;;26.50;16.80;;;;;;;;;;2089060;28;20043;-46
2021/08/23 03:59:42;;;;;;;26.73;16.55;;;;;;;;;;2088565;28;20049;-46
2021/08/23 04:00:43;;;;;;;22.48;16.17;;;;;;;;;;2086179;28;20055;-47
2021/08/23 04:01:44;;;;;;;26.27;16.80;;;;;;;;;;2089043;28;20057;-46
2021/08/23 04:02:46;;;;;;;24.98;17.05;;;;;;;;;;2088625;28;20049;-46
2021/08/23 04:03:46;;;;;;;30.92;17.83;;;;;;;;;;2086111;28;20930;-45
2021/08/23 04:04:48;;;;;;;24.37;18.63;;;;;;;;;;2088717;28;20131;-46
2021/08/23 04:05:49;;;;;;;23.38;16.77;;;;;;;;;;2087688;28;20082;-47
2021/08/23 04:06:50;;;;;;;21.58;16.10;;;;;;;;;;2087183;28;20075;-47
2021/08/23 04:07:51;;;;;;;25.48;17.45;;;;;;;;;;2089074;28;20128;-50
2021/08/23 04:08:53;;;;;;;25.75;16.42;;;;;;;;;;2087010;28;20048;-48
2021/08/23 04:09:54;;;;;;;28.27;17.45;;;;;;;;;;2087446;28;20051;-46
2021/08/23 04:10:55;;;;;;;31.60;18.30;;;;;;;;;;2088803;28;20210;-47
2021/08/23 04:11:56;;;;;;;26.23;17.52;;;;;;;;;;2086724;28;20053;-46
2021/08/23 04:12:57;;;;;;;26.50;16.97;;;;;;;;;;2087419;28;20048;-46
2021/08/23 04:13:58;;;;;;;29.95;18.30;;;;;;;;;;2088854;28;20605;-46
2021/08/23 04:14:59;;;;;;;24.42;16.52;;;;;;;;;;2087086;28;20045;-45
2021/08/23 04:16:00;;;;;;;28.83;17.50;;;;;;;;;;2081842;28;20046;-46
2021/08/23 04:17:03;;;;;;;24.33;17.05;;;;;;;;;;2080750;28;20049;-44
2021/08/23 04:18:03;;;;;;;29.42;18.30;;;;;;;;;;2083675;28;20120;-45
2021/08/23 04:19:05;;;;;;;22.77;17.20;;;;;;;;;;2081082;28;20376;-45
2021/08/23 04:20:06;;;;;;;32.88;18.15;;;;;;;;;;2080543;28;20529;-44
2021/08/23 04:21:08;;;;;;;23.02;17.10;;;;;;;;;;2083043;28;20053;-45
2021/08/23 04:22:11;;;;;;;25.45;17.73;;;;;;;;;;2088431;28;20120;-45
2021/08/23 04:23:12;;;;;;;28.70;17.90;;;;;;;;;;2088666;28;20387;-45
2021/08/23 04:24:13;;;;;;;25.88;18.38;;;;;;;;;;2085490;28;20422;-44
2021/08/23 04:25:14;;;;;;;27.90;17.27;;;;;;;;;;2088597;28;20049;-46
2021/08/23 04:26:15;;;;;;;27.35;18.48;;;;;;;;;;2088587;28;20503;-45
2021/08/23 04:27:16;;;;;;;27.50;18.00;;;;;;;;;;2084066;28;20095;-45
2021/08/23 04:28:17;;;;;;;32.00;18.65;;;;;;;;;;2088887;28;20114;-44
2021/08/23 04:29:18;;;;;;;29.77;18.27;;;;;;;;;;2088105;28;20107;-44
2021/08/23 04:30:19;;;;;;;23.73;17.08;;;;;;;;;;2084278;28;20140;-44
2021/08/23 04:31:21;;;;;;;24.35;16.55;;;;;;;;;;2084579;28;20052;-46
2021/08/23 04:32:22;;;;;;;26.80;17.70;;;;;;;;;;2084111;28;20073;-45
2021/08/23 04:33:23;;;;;;;25.53;18.23;;;;;;;;;;2085910;28;20384;-44
2021/08/23 04:34:24;;;;;;;26.05;17.27;;;;;;;;;;2084359;28;20289;-45
2021/08/23 04:35:25;;;;;;;29.50;18.07;;;;;;;;;;2084976;28;20046;-44
2021/08/23 04:36:26;;;;;;;27.25;18.10;;;;;;;;;;2085454;28;20135;-46
2021/08/23 04:37:28;;;;;;;27.27;18.38;;;;;;;;;;2082378;28;20204;-47
2021/08/23 04:38:28;;;;;;;26.00;17.60;;;;;;;;;;2082832;28;20049;-44
2021/08/23 04:39:30;;;;;;;28.23;18.37;;;;;;;;;;2087309;28;20049;-44
2021/08/23 04:40:31;;;;;;;26.45;16.33;;;;;;;;;;2089572;28;20124;-45
2021/08/23 04:41:34;;;;;;;25.13;16.83;;;;;;;;;;2086707;28;20053;-47
2021/08/23 04:42:35;;;;;;;23.67;15.73;;;;;;;;;;2084770;28;20145;-46
2021/08/23 04:43:37;;;;;;;25.03;16.63;;;;;;;;;;2082554;28;20128;-46
2021/08/23 04:44:38;;;;;;;27.42;16.92;;;;;;;;;;2083303;28;20092;-45
2021/08/23 04:45:39;;;;;;;27.87;15.97;;;;;;;;;;2086376;28;20482;-46
2021/08/23 04:46:40;;;;;;;23.30;16.13;;;;;;;;;;2086859;28;20552;-46
2021/08/23 04:47:41;;;;;;;28.15;16.23;;;;;;;;;;2082832;28;20095;-45
2021/08/23 04:48:42;;;;;;;22.50;15.98;;;;;;;;;;2088075;28;20418;-46
2021/08/23 04:49:43;;;;;;;25.90;15.93;;;;;;;;;;2089411;28;20045;-47
2021/08/23 04:50:44;;;;;;;26.25;16.40;;;;;;;;;;2085931;28;20136;-48
2021/08/23 04:51:46;;;;;;;27.50;16.13;;;;;;;;;;2089361;28;20490;-45
2021/08/23 04:52:47;;;;;;;24.70;16.42;;;;;;;;;;2088104;28;20164;-45
2021/08/23 04:53:48;;;;;;;24.77;16.30;;;;;;;;;;2086427;28;20083;-45
2021/08/23 04:54:49;;;;;;;32.07;15.47;;;;;;;;;;2089575;28;20067;-45
2021/08/23 04:55:50;;;;;;;26.20;15.88;;;;;;;;;;2089443;28;20132;-46
2021/08/23 04:56:51;;;;;;;23.97;15.27;;;;;;;;;;2087699;28;20053;-45
2021/08/23 04:57:52;;;;;;;26.52;15.98;;;;;;;;;;2089200;28;20413;-45
2021/08/23 04:58:54;;;;;;;26.88;15.60;;;;;;;;;;2089449;28;20068;-45
2021/08/23 04:59:54;;;;;;;22.05;15.70;;;;;;;;;;2086485;28;20060;-46
2021/08/23 05:00:56;;;;;;;22.30;14.67;;;;;;;;;;2087070;28;20059;-44
2021/08/23 05:01:57;;;;;;;22.40;16.35;;;;;;;;;;2088908;28;20063;-45
2021/08/23 05:02:58;;;;;;;27.20;16.33;;;;;;;;;;2086443;28;20103;-45
2021/08/23 05:03:59;;;;;;;27.05;15.82;;;;;;;;;;2089379;28;20075;-45
2021/08/23 05:05:00;;;;;;;24.83;16.60;;;;;;;;;;2088175;28;20483;-45
2021/08/23 05:06:01;;;;;;;21.92;15.50;;;;;;;;;;2085959;28;20048;-50
2021/08/23 05:07:03;;;;;;;23.07;14.93;;;;;;;;;;2088802;28;20051;-49
2021/08/23 05:08:04;;;;;;;27.00;15.35;;;;;;;;;;2088151;28;20472;-49
2021/08/23 05:09:06;;;;;;;25.88;15.95;;;;;;;;;;2086113;28;20091;-52
2021/08/23 05:10:08;;;;;;;20.65;14.10;;;;;;;;;;2089096;28;20045;-50
2021/08/23 05:11:09;;;;;;;28.98;16.23;;;;;;;;;;2087213;28;20447;-48
2021/08/23 05:12:10;;;;;;;24.05;14.48;;;;;;;;;;2088083;28;20045;-52
2021/08/23 05:13:11;;;;;;;23.67;14.98;;;;;;;;;;2088987;28;20460;-48
2021/08/23 05:14:12;;;;;;;26.80;15.53;;;;;;;;;;2086999;28;20055;-50
2021/08/23 05:15:13;;;;;;;23.63;14.75;;;;;;;;;;2086557;28;20490;-49
2021/08/23 05:16:14;;;;;;;35.37;15.97;;;;;;;;;;2086907;28;20052;-53
2021/08/23 05:17:16;;;;;;;32.95;15.05;;;;;;;;;;2084678;28;20080;-48
2021/08/23 05:18:17;;;;;;;21.13;13.85;;;;;;;;;;2085882;28;20558;-48
2021/08/23 05:19:18;;;;;;;21.40;13.60;;;;;;;;;;2084828;28;20072;-52
2021/08/23 05:20:19;;;;;;;27.35;15.13;;;;;;;;;;2085717;28;20192;-49
2021/08/23 05:21:20;;;;;;;27.20;15.27;;;;;;;;;;2088860;28;20048;-49
2021/08/23 05:22:22;;;;;;;23.25;14.77;;;;;;;;;;2086021;28;20433;-49
2021/08/23 05:23:23;;;;;;;28.27;15.05;;;;;;;;;;2085154;28;20132;-49
2021/08/23 05:24:24;;;;;;;24.25;15.65;;;;;;;;;;2087289;28;20055;-50
2021/08/23 05:25:25;;;;;;;22.07;14.53;;;;;;;;;;2086055;28;20075;-46
2021/08/23 05:26:26;;;;;;;22.65;14.80;;;;;;;;;;2085103;28;20140;-46
2021/08/23 05:27:27;;;;;;;26.67;17.07;;;;;;;;;;2087295;28;20045;-44
2021/08/23 05:28:30;;;;;;;35.10;17.05;;;;;;;;;;2086294;28;20053;-46
2021/08/23 05:29:31;;;;;;;32.70;18.83;;;;;;;;;;2086136;28;20131;-45
2021/08/23 05:30:33;;;;;;;23.90;17.08;;;;;;;;;;2087063;28;20140;-45
2021/08/23 05:31:34;;;;;;;25.05;16.45;;;;;;;;;;2084415;28;20152;-45
2021/08/23 05:32:35;;;;;;;29.33;17.73;;;;;;;;;;2086229;28;20424;-45
2021/08/23 05:33:36;;;;;;;29.57;16.30;;;;;;;;;;2087001;28;20068;-44
2021/08/23 05:34:37;;;;;;;25.15;13.50;;;;;;;;;;2086363;28;20076;-44
2021/08/23 05:35:38;;;;;;;21.50;14.83;;;;;;;;;;2086624;28;20529;-45
2021/08/23 05:36:40;;;;;;;24.80;14.82;;;;;;;;;;2086647;28;20293;-45
2021/08/23 05:37:43;;;;;;;22.55;13.68;;;;;;;;;;2085510;28;20451;-46
2021/08/23 05:38:44;;;;;;;19.95;13.35;;;;;;;;;;2087300;28;20476;-45
2021/08/23 05:39:45;;;;;;;18.52;13.10;;;;;;;;;;2086965;28;20051;-45
2021/08/23 05:40:46;;;;;;;19.60;12.40;;;;;;;;;;2086168;28;20412;-44
2021/08/23 05:41:47;;;;;;;19.35;12.90;;;;;;;;;;2087690;28;20045;-49
2021/08/23 05:42:48;;;;;;;20.63;14.20;;;;;;;;;;2085008;28;20084;-51
2021/08/23 05:43:49;;;;;;;18.35;12.82;;;;;;;;;;2083175;28;20040;-49
2021/08/23 05:44:52;;;;;;;22.13;13.77;;;;;;;;;;2085636;28;20045;-49
2021/08/23 05:45:53;;;;;;;19.20;13.32;;;;;;;;;;2083748;28;20512;-50
2021/08/23 05:46:54;;;;;;;22.02;13.50;;;;;;;;;;2084487;28;20045;-52
2021/08/23 05:47:55;;;;;;;19.63;12.63;;;;;;;;;;2086231;28;20080;-51
2021/08/23 05:48:57;;;;;;;21.33;12.40;;;;;;;;;;2086879;28;20048;-53
2021/08/23 05:49:58;;;;;;;19.33;12.88;;;;;;;;;;2086927;28;20037;-51
2021/08/23 05:50:59;;;;;;;20.60;13.17;;;;;;;;;;2086316;28;20045;-47
2021/08/23 05:52:01;;;;;;;20.00;12.18;;;;;;;;;;2084140;28;20286;-49
2021/08/23 05:53:02;;;;;;;17.55;11.30;;;;;;;;;;2082475;28;20087;-49
2021/08/23 05:54:03;;;;;;;19.00;11.48;;;;;;;;;;2086266;28;20056;-48
2021/08/23 05:55:04;;;;;;;15.73;11.20;;;;;;;;;;2084353;28;20053;-50
2021/08/23 05:56:05;;;;;;;17.67;11.88;;;;;;;;;;2086074;28;20099;-51
2021/08/23 05:57:07;;;;;;;16.70;11.40;;;;;;;;;;2084565;28;20521;-51
2021/08/23 05:58:08;;;;;;;22.02;13.20;;;;;;;;;;2084113;28;20053;-44
2021/08/23 05:59:09;;;;;;;18.40;12.57;;;;;;;;;;2085560;28;20124;-43